Aérodrome :
LOGIN :

S'inscrire | Disclaimer

   EN    FR    IT 

 










Légende :    VFR   VFR Marginal   IFR   IFR Intensif   IFR Très Intensif
Visi : 
Plafond : 
>= 8 km
>= 3000ft
5 à 8 km
1000 à 3000 ft
1500m à 5 km
500 à 1000 ft
800 à 1500m
200 à 500 ft
< 800m
< 200 ft
Symboles :   Orages  Brouillard  Fortes neiges  Fortes précipitations  Vent > 20 kt
SIGMETs :   Divers  Orages  Givrage  Turbulence  Onde Orograph.  Cendres Volcan.






- Altitude de l'aérodrome : 157 ft
- Code IATA : LIL


LFQQ - Lille Lesquin

DERNIER METAR :
  • 161400Z AUTO 16013KT 2400 -SN BR OVC005/// ///TCU M01/M01 Q1019 TEMPO 1200 SNRA OVC001

METARs EXPIRÉS :
  • 161330Z AUTO 16011KT 1000 0900 R26/1700N R08/1400D +SN BCFG OVC005/// ///TCU M01/M01 Q1020 TEMPO FZRA OVC001
  • 161300Z AUTO 16011KT 1400 1300 R26/2100U R08/1700N SN BR OVC005 M01/M02 Q1021 TEMPO OVC001
  • 161230Z AUTO 17010KT 1000 R26/1700D R08/1400N SN BR OVC005 M01/M02 Q1022 TEMPO OVC001
  • 161200Z AUTO 16011KT 130V190 2000 -SN BR BKN006 BKN011 OVC027 M01/M02 Q1022 TEMPO 1200 SN OVC001
  • 161130Z AUTO 17012KT 2100 -SN BR BKN010 BKN017 OVC035 M01/M02 Q1023 TEMPO 19015G25KT 1200 SN OVC001

TAF TAF LFQQ
Valide du 16 à 12h jusqu'au 17 à 18h UTC


161100Z 1612/1718 17012KT 3000 BR BKN007 OVC013
TEMPO 1612/1615 1200 SN OVC001
TEMPO 1615/1618 1200 SNRA OVC001
PROB30 1615/1618 FZRA
BECMG 1618/1620 20005KT
TEMPO 1618/1624 1200 RA BR OVC001
FM170000 28010KT 9999 BKN020
TEMPO 1700/1706 3000 BR
TEMPO 1706/1712 BKN013
ATIS : +33 3 20 16 19 54



MET'MAP, la Météo Aéronautique d'un coup d'oeil ! - Copyright ORBIFLY Décembre 2007 - Disclaimer

ORBIFLY MET'MAP TEAM :

Programmation & Développement : Alexandra Zaïnal
Sur une idée originale de : Baudouin d'Aumeries
Assistance à la programmation : Marc-Olivier Méhu
Soutien technique & logistique : Manuel Goepfert

Contact : metmap@orbifly.com




SOURCES & CREDITS :

   NOAA